地図

経路データ

SID SEASON NUMBER BASIN SUBBASIN NAME ISO_TIME NATURE LAT LON WMO_WIND WMO_PRES WMO_AGENCY TRACK_TYPE DIST2LAND LANDFALL IFLAG USA_AGENCY USA_ATCF_ID USA_LAT USA_LON USA_RECORD USA_STATUS USA_WIND USA_PRES USA_SSHS USA_R34_NE USA_R34_SE USA_R34_SW USA_R34_NW USA_R50_NE USA_R50_SE USA_R50_SW USA_R50_NW USA_R64_NE USA_R64_SE USA_R64_SW USA_R64_NW USA_POCI USA_ROCI USA_RMW USA_EYE TOKYO_LAT TOKYO_LON TOKYO_GRADE TOKYO_WIND TOKYO_PRES TOKYO_R50_DIR TOKYO_R50_LONG TOKYO_R50_SHORT TOKYO_R30_DIR TOKYO_R30_LONG TOKYO_R30_SHORT TOKYO_LAND CMA_LAT CMA_LON CMA_CAT CMA_WIND CMA_PRES HKO_LAT HKO_LON HKO_CAT HKO_WIND HKO_PRES NEWDELHI_LAT NEWDELHI_LON NEWDELHI_GRADE NEWDELHI_WIND NEWDELHI_PRES NEWDELHI_CI NEWDELHI_DP NEWDELHI_POCI REUNION_LAT REUNION_LON REUNION_TYPE REUNION_WIND REUNION_PRES REUNION_TNUM REUNION_CI REUNION_RMW REUNION_R34_NE REUNION_R34_SE REUNION_R34_SW REUNION_R34_NW REUNION_R50_NE REUNION_R50_SE REUNION_R50_SW REUNION_R50_NW REUNION_R64_NE REUNION_R64_SE REUNION_R64_SW REUNION_R64_NW BOM_LAT BOM_LON BOM_TYPE BOM_WIND BOM_PRES BOM_TNUM BOM_CI BOM_RMW BOM_R34_NE BOM_R34_SE BOM_R34_SW BOM_R34_NW BOM_R50_NE BOM_R50_SE BOM_R50_SW BOM_R50_NW BOM_R64_NE BOM_R64_SE BOM_R64_SW BOM_R64_NW BOM_ROCI BOM_POCI BOM_EYE BOM_POS_METHOD BOM_PRES_METHOD NADI_LAT NADI_LON NADI_CAT NADI_WIND NADI_PRES WELLINGTON_LAT WELLINGTON_LON WELLINGTON_WIND WELLINGTON_PRES DS824_LAT DS824_LON DS824_STAGE DS824_WIND DS824_PRES TD9636_LAT TD9636_LON TD9636_STAGE TD9636_WIND TD9636_PRES TD9635_LAT TD9635_LON TD9635_WIND TD9635_PRES TD9635_ROCI NEUMANN_LAT NEUMANN_LON NEUMANN_CLASS NEUMANN_WIND NEUMANN_PRES MLC_LAT MLC_LON MLC_CLASS MLC_WIND MLC_PRES USA_GUST BOM_GUST BOM_GUST_PER REUNION_GUST REUNION_GUST_PER USA_SEAHGT USA_SEARAD_NE USA_SEARAD_SE USA_SEARAD_SW USA_SEARAD_NW STORM_SPEED STORM_DIR
1914175N19087 1914 15 NI BB NOT_NAMED 1914-06-24 00:00:00 TS 19.2000 86.5000 main 88 74 _________O____ -1 19.2000 86.5000 TC 34 7 275
1914175N19087 1914 15 NI BB NOT_NAMED 1914-06-24 03:00:00 TS 19.2335 86.1067 main 74 39 _________PO___ -1 19.2502 85.9100 TC 33 19.2000 86.5000 2 9 275
1914175N19087 1914 15 NI BB NOT_NAMED 1914-06-24 06:00:00 TS 19.2815 85.5202 main 35 0 _________OP___ -1 19.3000 85.3000 TC 32 19.2537 85.8504 2 11 275
1914175N19087 1914 15 NI BB NOT_NAMED 1914-06-24 09:00:00 TS 19.3307 84.9059 main 0 0 _________PP___ -1 19.3501 84.6700 TC 31 19.3049 85.2204 2 11 275
1914175N19087 1914 15 NI BB NOT_NAMED 1914-06-24 12:00:00 TS 19.3768 84.3651 main 0 0 _________OP___ -1 19.4000 84.1000 TC 30 19.3536 84.6302 2 10 276
1914175N19087 1914 15 NI BB NOT_NAMED 1914-06-24 15:00:00 TS 19.4249 83.8812 main 0 0 _________PO___ -1 19.4497 83.6625 TC 30 19.4000 84.1000 1 8 276
1914175N19087 1914 15 NI BB NOT_NAMED 1914-06-24 18:00:00 TS 19.4725 83.4720 main 0 0 _________OP___ -1 19.5000 83.3000 TC 30 19.4451 83.6440 1 7 277
1914175N19087 1914 15 NI BB NOT_NAMED 1914-06-24 21:00:00 TS 19.5207 83.0937 main 0 0 _________PP___ -1 19.5499 82.9350 TC 30 19.4915 83.2524 1 7 278
1914175N19087 1914 15 NI BB NOT_NAMED 1914-06-25 00:00:00 TS 19.5711 82.7548 main 0 0 _________OP___ -1 19.6000 82.6000 TC 30 19.5422 82.9096 1 6 279
1914175N19087 1914 15 NI BB NOT_NAMED 1914-06-25 03:00:00 TS 19.6212 82.4425 main 0 0 _________PO___ -1 19.6424 82.2849 TC 30 19.6000 82.6000 1 6 281
1914175N19087 1914 15 NI BB NOT_NAMED 1914-06-25 06:00:00 TS 19.6858 82.1441 main 0 0 _________OP___ -1 19.7000 82.0000 TC 30 19.6716 82.2881 1 6 286
1914175N19087 1914 15 NI BB NOT_NAMED 1914-06-25 09:00:00 TS 19.7748 81.8738 main 0 0 _________PP___ -1 19.7999 81.7425 TC 30 19.7496 82.0050 1 5 290
1914175N19087 1914 15 NI BB NOT_NAMED 1914-06-25 12:00:00 TS 19.8640 81.6222 main 0 0 _________OP___ -1 19.9000 81.5000 TC 30 19.8279 81.7444 1 5 288
1914175N19087 1914 15 NI BB NOT_NAMED 1914-06-25 15:00:00 TS 19.9287 81.3712 main 0 0 _________PO___ -1 19.9575 81.2425 TC 30 19.9000 81.5000 1 5 283
1914175N19087 1914 15 NI BB NOT_NAMED 1914-06-25 18:00:00 TS 19.9702 81.1463 main 0 0 _________OP___ -1 20.0000 81.0000 TC 30 19.9404 81.2927 1 4 281
1914175N19087 1914 15 NI BB NOT_NAMED 1914-06-25 21:00:00 TS 20.0057 80.9621 main 0 0 _________PP___ -1 20.0348 80.8298 TC 30 19.9767 81.0943 1 4 283
1914175N19087 1914 15 NI BB NOT_NAMED 1914-06-26 00:00:00 TS 20.0623 80.7369 main 0 0 _________OP___ -1 20.1000 80.6000 TC 30 20.0247 80.8738 1 6 287
1914175N19087 1914 15 NI BB NOT_NAMED 1914-06-26 03:00:00 TS 20.1676 80.3901 main 0 0 _________PO___ -1 20.2352 80.1801 TC 30 20.1000 80.6000 1 8 289
1914175N19087 1914 15 NI BB NOT_NAMED 1914-06-26 06:00:00 TS 20.3128 79.9624 main 0 0 _________OP___ -1 20.4000 79.7000 TC 30 20.2257 80.2248 1 8 291
1914175N19087 1914 15 NI BB NOT_NAMED 1914-06-26 09:00:00 TS 20.4677 79.5440 main 0 0 _________PP___ -1 20.5574 79.2925 TC 30 20.3780 79.7955 1 8 291
1914175N19087 1914 15 NI BB NOT_NAMED 1914-06-26 12:00:00 TS 20.6206 79.1217 main 0 0 _________OP___ -1 20.7000 78.9000 TC 30 20.5413 79.3434 1 8 290
1914175N19087 1914 15 NI BB NOT_NAMED 1914-06-26 15:00:00 TS 20.7500 78.6962 main 0 0 _________PO___ -1 20.8000 78.4923 TC 30 20.7000 78.9000 1 8 287
1914175N19087 1914 15 NI BB NOT_NAMED 1914-06-26 18:00:00 TS 20.8469 78.3409 main 0 0 _________OP___ -1 20.9000 78.1000 TC 30 20.7937 78.5817 1 6 288
1914175N19087 1914 15 NI BB NOT_NAMED 1914-06-26 21:00:00 TS 20.9493 78.0417 main 0 0 _________PP___ -1 21.0117 77.8168 TC 30 20.8870 78.2667 1 7 292
1914175N19087 1914 15 NI AS NOT_NAMED 1914-06-27 00:00:00 TS 21.1059 77.6468 main 0 0 _________OP___ -1 21.2000 77.4000 TC 30 21.0119 77.8935 1 10 293
1914175N19087 1914 15 NI AS NOT_NAMED 1914-06-27 03:00:00 TS 21.3603 77.0090 main 0 0 _________PO___ -1 21.5206 76.6179 TC 30 21.2000 77.4000 1 15 293
1914175N19087 1914 15 NI AS NOT_NAMED 1914-06-27 06:00:00 TS 21.6870 76.2084 main 0 0 _________OP___ -1 21.9000 75.7000 TC 30 21.4740 76.7168 1 16 294
1914175N19087 1914 15 NI AS NOT_NAMED 1914-06-27 09:00:00 TS 22.0264 75.4071 main 0 0 _________PP___ -1 22.2418 74.9068 TC 30 21.8110 75.9074 1 17 295
1914175N19087 1914 15 NI AS NOT_NAMED 1914-06-27 12:00:00 TS 22.3962 74.5596 main 0 0 _________OP___ -1 22.6000 74.1000 TC 30 22.1923 75.0192 1 18 295
1914175N19087 1914 15 NI AS NOT_NAMED 1914-06-27 15:00:00 TS 22.7924 73.6573 main 0 0 _________PO___ -1 22.9847 73.2146 TC 30 22.6000 74.1000 1 18 296
1914175N19087 1914 15 NI AS NOT_NAMED 1914-06-27 18:00:00 TS 23.1825 72.8080 main 0 0 _________OP___ -1 23.4000 72.3000 TC 30 23.0194 73.1891 1 18 297
1914175N19087 1914 15 NI AS NOT_NAMED 1914-06-27 21:00:00 TS 23.6044 71.9321 main 0 0 _________PP___ -1 23.8434 71.3963 TC 30 23.4450 72.2893 1 18 298
1914175N19087 1914 15 NI AS NOT_NAMED 1914-06-28 00:00:00 TS 24.0154 71.0965 main 0 0 _________OP___ -1 24.3000 70.5000 TC 30 23.8732 71.3948 1 15 298
1914175N19087 1914 15 NI AS NOT_NAMED 1914-06-28 03:00:00 NR 24.3000 70.5000 main 0 __________O___ -1 TC 24.3000 70.5000 1 12 298

IBTrACS Databaseについて

本データベースは、米国NOAAが公開する1842年以降の世界の熱帯低気圧のベストトラックデータアーカイブInternational Best Track Archive for Climate Stewardship (IBTrACS)を、ウェブで閲覧しやすい形式に変換したものです。

最終更新日:2021-10-27